This is the latest recevied weather packets stored in our database for station/object DG3RAP-11. If no packets are shown the sender has not sent any weather packets the latest 10 day(s).
| Time | Temp. | Humidity | Pressure | Rain* | Wind** | Luminosity | Snow |
|---|---|---|---|---|---|---|---|
| 1777300563 | 19.44° C | 29% | 1019 hPa | 0 mm | - | - | - |
| 1777300024 | 19.44° C | 27% | 1019 hPa | 0 mm | - | - | - |
| 1777299483 | 18.89° C | 27% | 1019 hPa | 0 mm | - | - | - |
| 1777298943 | 19.44° C | 24% | 1019.3 hPa | 0 mm | - | - | - |
| 1777298403 | 18.89° C | 32% | 1019.3 hPa | 0 mm | - | - | - |
| 1777298044 | 18.33° C | 29% | 1019.4 hPa | 0 mm | - | - | - |
| 1777297503 | 19.44° C | 28% | 1019.4 hPa | 0 mm | - | - | - |
| 1777296963 | 18.33° C | 31% | 1019.3 hPa | 0 mm | - | - | - |
| 1777296423 | 19.44° C | 26% | 1019.5 hPa | 0 mm | - | - | - |
| 1777295883 | 18.33° C | 28% | 1019.9 hPa | 0 mm | - | - | - |
| 1777295344 | 17.78° C | 30% | 1019.6 hPa | 0 mm | - | - | - |
| 1777294803 | 17.78° C | 32% | 1019.7 hPa | 0 mm | - | - | - |
| 1777294443 | 19.44° C | 30% | 1019.9 hPa | 0 mm | - | - | - |
| 1777293903 | 18.89° C | 32% | 1019.7 hPa | 0 mm | - | - | - |
| 1777293364 | 18.33° C | 34% | 1019.8 hPa | 0 mm | - | - | - |
| 1777292823 | 18.33° C | 34% | 1019.9 hPa | 0 mm | - | - | - |
| 1777292283 | 18.89° C | 35% | 1019.8 hPa | 0 mm | - | - | - |
| 1777291743 | 18.89° C | 34% | 1020 hPa | 0 mm | - | - | - |
| 1777291204 | 18.89° C | 35% | 1020.4 hPa | 0 mm | - | - | - |
| 1777290843 | 18.33° C | 33% | 1020.4 hPa | 0 mm | - | - | - |
| 1777290303 | 17.78° C | 34% | 1020.6 hPa | 0 mm | - | - | - |
| 1777289764 | 18.33° C | 33% | 1020.6 hPa | 0 mm | - | - | - |
| 1777289224 | 17.78° C | 33% | 1020.5 hPa | 0 mm | - | - | - |
| 1777288683 | 16.67° C | 36% | 1020.7 hPa | 0 mm | - | - | - |
| 1777288143 | 18.33° C | 35% | 1020.8 hPa | 0 mm | - | - | - |
* Rain latest hour (hover to see other rain measurements)
** Current wind speed in m/s (hover to see current wind gust speed)